Latest Coastal Weather Observations for Dennes Point

IDT60701

Issued at 5:52 am EST Monday 24 April 2017 (issued every 10 minutes, with the page automatically refreshed every 10 minutes)

About coastal observations | Map of coastal stations | Coastal observations for TAS | Marine services | Other Formats
Station Details ID: 094255 Name: DENNES POINT Lat: -43.06 Lon: 147.36 Height: 5.67 m
Data from the previous 72 hours. | See also: Recent months at Dennes Point
Date/Time
EST
Temp
°C
Wind Pressure Rain since
9am
mm
Weather Cloud Vis
km
Sea
Height
m
Swell
Dir  Spd
kts
Gust
kts
hPa Trend Height
m
Period
s
Dir
24/05:30am 13.2 NNE 7 8 1021.8 - 0.2 - - - - - - -
24/05:00am 13.5 NNE 7 8 1021.9 - 0.0 - - - - - - -
24/04:30am 13.0 WSW 2 4 1022.0 - 0.0 - - - - - - -
24/04:00am 13.4 N 5 6 1022.1 - 0.0 - - - - - - -
24/03:30am 12.6 CALM 0 0 1022.2 - 0.0 - - - - - - -
24/03:00am 12.3 SW 1 2 1022.7 - 0.0 - - - - - - -
24/02:30am 12.3 SSW 3 3 1023.2 - 0.0 - - - - - - -
24/02:00am 12.2 SSW 3 3 1023.6 - 0.0 - - - - - - -
24/01:30am 12.1 SSW 3 3 1023.8 - 0.0 - - - - - - -
24/01:00am 12.1 SSW 3 3 1024.0 - 0.0 - - - - - - -
24/12:30am 12.1 SW 3 4 1024.2 - 0.0 - - - - - - -
24/12:00am 11.9 SSW 4 5 1024.5 - 0.0 - - - - - - -
 
Date/Time
EST
Temp
°C
Wind Pressure Rain since
9am
mm
Weather Cloud Vis
km
Sea
Height
m
Swell
Dir  Spd
kts
Gust
kts
hPa Trend Height
m
Period
s
Dir
23/11:30pm 11.9 SW 3 5 1024.9 - 0.0 - - - - - - -
23/11:00pm 11.8 SSW 4 4 1025.2 - 0.0 - - - - - - -
23/10:30pm 11.8 SSW 3 4 1025.4 - 0.0 - - - - - - -
23/10:00pm 12.1 SSW 3 5 1025.6 - 0.0 - - - - - - -
23/09:30pm 11.6 SSW 3 4 1025.7 - 0.0 - - - - - - -
23/09:00pm 11.6 SW 3 4 1025.8 - 0.0 - - - - - - -
23/08:30pm 11.7 SW 3 3 1025.7 - 0.0 - - - - - - -
23/08:00pm 11.7 SSW 3 3 1025.6 - 0.0 - - - - - - -
23/07:30pm 11.8 SW 3 3 1025.5 - 0.0 - - - - - - -
23/07:00pm 12.8 SE 2 3 1025.4 - 0.0 - - - - - - -
23/06:30pm 12.4 ESE 3 4 1025.4 - 0.0 - - - - - - -
23/06:00pm 12.9 ESE 3 4 1025.4 - 0.0 - - - - - - -
23/05:30pm 13.2 SE 3 4 1025.2 - 0.0 - - - - - - -
23/05:00pm 13.8 ESE 4 6 1025.1 - 0.0 - - - - - - -
23/04:30pm 14.3 ESE 4 5 1025.2 - 0.0 - - - - - - -
23/04:00pm 14.4 SE 4 6 1025.4 - 0.0 - - - - - - -
23/03:30pm 14.6 ESE 4 5 1025.3 - 0.0 - - - - - - -
23/03:00pm 14.8 ESE 4 5 1025.0 - 0.0 - - - - - - -
23/02:30pm 14.7 ESE 4 6 1025.1 - 0.0 - - - - - - -
23/02:00pm 14.6 ESE 5 7 1025.2 - 0.0 - - - - - - -
23/01:30pm 14.8 ESE 4 5 1025.3 - 0.0 - - - - - - -
23/01:00pm 14.8 ESE 6 7 1025.5 - 0.0 - - - - - - -
23/12:30pm 14.6 ESE 5 7 1025.6 - 0.0 - - - - - - -
23/12:00pm 14.5 ESE 5 7 1026.0 - 0.0 - - - - - - -
23/11:30am 14.7 ESE 3 6 1026.2 - 0.0 - - - - - - -
23/11:00am 14.9 ESE 3 5 1026.3 - 0.0 - - - - - - -
23/10:30am 14.6 S 3 4 1026.5 - 0.0 - - - - - - -
23/10:00am 14.3 S 4 7 1026.6 - 0.0 - - - - - - -
23/09:30am 14.5 SSE 3 5 1026.4 - 0.0 - - - - - - -
23/09:00am 14.3 S 2 3 1026.5 - 0.6 - - - - - - -
23/08:30am 13.8 SSW 4 5 1026.5 - 0.6 - - - - - - -
23/08:00am 13.8 SSW 3 5 1026.3 - 0.6 - - - - - - -
23/07:30am 13.6 S 3 4 1026.0 - 0.6 - - - - - - -
23/07:00am 13.4 SSW 1 3 1025.8 - 0.6 - - - - - - -
23/06:30am 13.4 S 3 6 1025.5 - 0.6 - - - - - - -
23/06:00am 13.2 S 1 3 1025.3 - 0.6 - - - - - - -
23/05:30am 13.2 SSW 2 4 1025.2 - 0.6 - - - - - - -
23/05:00am 13.3 CALM 0 2 1025.1 - 0.6 - - - - - - -
23/04:30am 13.3 S 1 3 1024.8 - 0.6 - - - - - - -
23/04:00am 13.4 S 2 3 1024.5 - 0.6 - - - - - - -
23/03:30am 13.4 S 4 5 1024.6 - 0.6 - - - - - - -
23/03:00am 13.4 SSE 3 6 1024.7 - 0.6 - - - - - - -
23/02:30am 13.3 S 5 7 1024.6 - 0.6 - - - - - - -
23/02:00am 13.4 SSW 4 7 1024.7 - 0.6 - - - - - - -
23/01:30am 13.4 SSW 3 5 1024.5 - 0.6 - - - - - - -
23/01:00am 13.5 S 2 4 1024.5 - 0.6 - - - - - - -
23/12:30am 13.4 CALM 0 1 1024.4 - 0.6 - - - - - - -
23/12:00am 13.5 SSW 4 5 1024.5 - 0.6 Recent precip. - - - - - -
 
Date/Time
EST
Temp
°C
Wind Pressure Rain since
9am
mm
Weather Cloud Vis
km
Sea
Height
m
Swell
Dir  Spd
kts
Gust
kts
hPa Trend Height
m
Period
s
Dir
22/11:30pm 13.7 S 3 6 1024.5 - 0.6 - - - - - - -
22/11:00pm 14.3 SSW 5 9 1024.5 - 0.4 - - - - - - -
22/10:30pm 14.8 CALM 0 0 1024.4 - 0.2 - - - - - - -
22/10:00pm 14.9 S 2 3 1024.3 - 0.0 - - - - - - -
22/09:30pm 15.2 S 3 4 1024.2 - 0.0 - - - - - - -
22/09:00pm 15.3 S 3 4 1024.1 - 0.0 - - - - - - -
22/08:30pm 15.4 SSE 2 4 1023.7 - 0.0 - - - - - - -
22/08:00pm 15.4 SW 5 6 1023.7 - 0.0 - - - - - - -
22/07:30pm 15.6 SSW 5 7 1023.5 - 0.0 - - - - - - -
22/07:00pm 15.8 SSW 4 8 1023.3 - 0.0 - - - - - - -
22/06:30pm 15.7 SSE 1 2 1023.1 - 0.0 - - - - - - -
22/06:00pm 15.7 ESE 1 3 1022.9 - 0.0 - - - - - - -
22/05:30pm 15.7 ESE 4 5 1022.8 - 0.0 - - - - - - -
22/05:00pm 15.7 ESE 5 7 1022.6 - 0.0 - - - - - - -
22/04:30pm 16.0 ESE 6 7 1022.3 - 0.0 - - - - - - -
22/04:00pm 16.6 ESE 2 5 1022.0 - 0.0 - - - - - - -
22/03:30pm 16.4 ESE 4 5 1021.8 - 0.0 - - - - - - -
22/03:00pm 16.4 ESE 4 6 1021.8 - 0.0 - - - - - - -
22/02:30pm 17.3 ESE 5 7 1021.5 - 0.0 - - - - - - -
22/02:00pm 16.8 ESE 3 5 1021.4 - 0.0 - - - - - - -
22/01:30pm 17.7 SSE 3 6 1021.4 - 0.0 - - - - - - -
22/01:00pm 17.1 ESE 5 6 1021.6 - 0.0 - - - - - - -
22/12:30pm 17.4 SSE 4 6 1021.8 - 0.0 - - - - - - -
22/12:00pm 18.3 SSW 4 5 1021.9 - 0.0 - - - - - - -
22/11:30am 18.2 SSW 4 7 1022.1 - 0.0 - - - - - - -
22/11:00am 18.0 SSW 8 12 1022.1 - 0.0 - - - - - - -
22/10:30am 18.3 SSW 8 13 1022.0 - 0.0 - - - - - - -
22/10:00am 19.1 SW 3 6 1022.0 - 0.0 - - - - - - -
22/09:30am 18.6 S 5 10 1021.8 - 0.0 - - - - - - -
22/09:00am 16.5 WNW 2 3 1021.8 - 0.0 - - - - - - -
22/08:30am 15.4 SW 5 7 1021.5 - 0.0 - - - - - - -
22/08:00am 15.9 CALM 0 2 1021.2 - 0.0 - - - - - - -
22/07:30am 15.4 CALM 0 0 1020.9 - 0.0 - - - - - - -
22/07:00am 15.0 WSW 2 5 1020.7 - 0.0 - - - - - - -
22/06:30am 16.1 NNE 9 11 1020.6 - 0.0 - - - - - - -
22/06:00am 16.0 N 9 11 1020.5 - 0.0 - - - - - - -
22/05:30am 15.2 N 3 7 1020.4 - 0.0 - - - - - - -
22/05:00am 15.7 NE 4 5 1020.3 - 0.0 - - - - - - -
22/04:30am 15.8 N 3 5 1020.2 - 0.0 - - - - - - -
22/04:00am 15.7 CALM 0 2 1020.1 - 0.0 - - - - - - -
22/03:30am 15.3 N 1 3 1020.1 - 0.0 - - - - - - -
22/03:00am 15.6 N 3 4 1020.2 - 0.0 - - - - - - -
22/02:30am 15.3 W 1 2 1020.3 - 0.0 - - - - - - -
22/02:00am 15.8 NNW 5 6 1020.5 - 0.0 - - - - - - -
22/01:30am 15.8 N 4 5 1020.6 - 0.0 - - - - - - -
22/01:00am 15.7 NE 2 3 1020.7 - 0.0 - - - - - - -
22/12:30am 15.2 CALM 0 2 1020.8 - 0.0 - - - - - - -
22/12:00am 15.8 NNE 1 3 1020.8 - 0.0 - - - - - - -
 
Date/Time
EST
Temp
°C
Wind Pressure Rain since
9am
mm
Weather Cloud Vis
km
Sea
Height
m
Swell
Dir  Spd
kts
Gust
kts
hPa Trend Height
m
Period
s
Dir
21/11:30pm 15.9 CALM 0 0 1021.0 - 0.0 - - - - - - -
21/11:00pm 16.2 CALM 0 0 1021.2 - 0.0 - - - - - - -
21/10:30pm 16.0 CALM 0 0 1021.4 - 0.0 - - - - - - -
21/10:00pm 16.4 NE 2 3 1021.5 - 0.0 - - - - - - -
21/09:30pm 16.1 ENE 2 3 1021.5 - 0.0 - - - - - - -
21/09:00pm 16.1 SSE 1 3 1021.5 - 0.0 - - - - - - -
21/08:30pm 17.0 CALM 0 0 1021.5 - 0.0 - - - - - - -
21/08:00pm 17.0 NNW 1 2 1021.5 - 0.0 - - - - - - -
21/07:30pm 16.9 NW 1 3 1021.5 - 0.0 - - - - - - -
21/07:00pm 17.3 NE 3 4 1021.5 - 0.0 - - - - - - -
21/06:30pm 17.7 ENE 4 6 1021.4 - 0.0 - - - - - - -
21/06:00pm 18.1 NNE 2 3 1021.2 - 0.0 - - - - - - -
21/05:30pm 19.2 NE 3 5 1021.0 - 0.0 - - - - - - -
21/05:00pm 18.5 ESE 5 7 1020.9 - 0.0 - - - - - - -
21/04:30pm 19.3 ESE 4 7 1020.9 - 0.0 - - - - - - -
21/04:00pm 20.4 ESE 10 14 1020.9 - 0.0 - - - - - - -
21/03:30pm 21.0 ESE 9 12 1020.9 - 0.0 - - - - - - -
21/03:00pm 21.4 ESE 9 12 1021.1 - 0.0 - - - - - - -
21/02:30pm 21.9 ESE 8 12 1021.2 - 0.0 - - - - - - -
21/02:00pm 22.5 ESE 7 10 1021.5 - 0.0 - - - - - - -
21/01:30pm 22.4 ESE 6 8 1021.9 - 0.0 - - - - - - -
21/01:00pm 21.3 E 4 5 1022.2 - 0.0 - - - - - - -
21/12:30pm 20.4 E 4 5 1022.7 - 0.0 - - - - - - -
21/12:00pm 20.0 NE 3 3 1023.1 - 0.0 - - - - - - -
21/11:30am 19.6 ENE 4 6 1023.6 - 0.0 - - - - - - -
21/11:00am 17.8 ENE 4 7 1023.9 - 0.0 - - - - - - -
21/10:30am 17.9 NE 6 9 1024.1 - 0.0 - - - - - - -
21/10:00am 16.6 N 5 7 1024.2 - 0.0 - - - - - - -
21/09:30am 16.4 N 4 5 1024.2 - 0.0 - - - - - - -
21/09:00am 16.0 NE 5 6 1024.2 - 0.0 - - - - - - -
21/08:30am 15.4 NNE 5 6 1024.2 - 0.0 - - - - - - -
21/08:00am 14.8 NE 5 6 1024.2 - 0.0 - - - - - - -
21/07:30am 14.0 CALM 0 1 1024.3 - 0.0 - - - - - - -
21/07:00am 12.5 SW 3 4 1024.1 - 0.0 - - - - - - -
21/06:30am 12.6 SW 3 4 1023.8 - 0.0 - - - - - - -
21/06:00am 11.9 SSW 4 5 1023.6 - 0.0 - - - - - - -

Other Formats:

Comma delimited format used in spreadsheet applications
http://www.bom.gov.au/fwo/IDT60701/IDT60701.94988.axf

JavaScript Object Notation format (JSON) in row-major order
http://www.bom.gov.au/fwo/IDT60701/IDT60701.94988.json